sensor_id;sensor_type;location;lat;lon;timestamp;P1;durP1;ratioP1;P2;durP2;ratioP2
81701;SDS011;71115;52.150;4.510;2023-08-21T00:02:24;14.10;;;4.30;;
81701;SDS011;71115;52.150;4.510;2023-08-21T00:04:52;9.73;;;3.17;;
81701;SDS011;71115;52.150;4.510;2023-08-21T00:07:19;10.68;;;2.47;;
81701;SDS011;71115;52.150;4.510;2023-08-21T00:09:45;7.75;;;2.58;;
81701;SDS011;71115;52.150;4.510;2023-08-21T00:12:11;13.60;;;2.90;;
81701;SDS011;71115;52.150;4.510;2023-08-21T00:14:37;5.82;;;2.58;;
81701;SDS011;71115;52.150;4.510;2023-08-21T00:17:06;7.50;;;2.70;;
81701;SDS011;71115;52.150;4.510;2023-08-21T00:19:33;10.18;;;2.70;;
81701;SDS011;71115;52.150;4.510;2023-08-21T00:21:59;7.93;;;2.55;;
81701;SDS011;71115;52.150;4.510;2023-08-21T00:24:25;6.47;;;3.25;;
81701;SDS011;71115;52.150;4.510;2023-08-21T00:26:51;11.70;;;2.75;;
81701;SDS011;71115;52.150;4.510;2023-08-21T00:29:17;9.73;;;2.45;;
81701;SDS011;71115;52.150;4.510;2023-08-21T00:31:44;7.13;;;3.05;;
81701;SDS011;71115;52.150;4.510;2023-08-21T00:34:12;7.68;;;2.40;;
81701;SDS011;71115;52.150;4.510;2023-08-21T00:36:38;9.00;;;2.88;;
81701;SDS011;71115;52.150;4.510;2023-08-21T00:39:04;8.70;;;2.50;;
81701;SDS011;71115;52.150;4.510;2023-08-21T00:41:31;7.10;;;2.65;;
81701;SDS011;71115;52.150;4.510;2023-08-21T00:43:59;8.10;;;2.53;;
81701;SDS011;71115;52.150;4.510;2023-08-21T00:46:25;10.05;;;4.50;;
81701;SDS011;71115;52.150;4.510;2023-08-21T00:48:51;5.85;;;2.65;;
81701;SDS011;71115;52.150;4.510;2023-08-21T00:51:17;7.75;;;2.60;;
81701;SDS011;71115;52.150;4.510;2023-08-21T00:53:43;6.15;;;2.22;;
81701;SDS011;71115;52.150;4.510;2023-08-21T00:56:10;10.77;;;2.70;;
81701;SDS011;71115;52.150;4.510;2023-08-21T00:58:36;9.93;;;2.30;;
81701;SDS011;71115;52.150;4.510;2023-08-21T01:01:02;9.13;;;3.30;;
81701;SDS011;71115;52.150;4.510;2023-08-21T01:03:30;9.60;;;2.67;;
81701;SDS011;71115;52.150;4.510;2023-08-21T01:05:56;10.82;;;2.90;;
81701;SDS011;71115;52.150;4.510;2023-08-21T01:11:14;8.25;;;2.75;;
81701;SDS011;71115;52.150;4.510;2023-08-21T01:16:06;6.28;;;1.98;;
81701;SDS011;71115;52.150;4.510;2023-08-21T01:18:33;10.93;;;2.72;;
81701;SDS011;71115;52.150;4.510;2023-08-21T01:21:01;5.30;;;2.13;;
81701;SDS011;71115;52.150;4.510;2023-08-21T01:25:58;7.35;;;3.03;;
81701;SDS011;71115;52.150;4.510;2023-08-21T01:28:24;8.45;;;2.50;;
81701;SDS011;71115;52.150;4.510;2023-08-21T01:30:51;6.85;;;2.20;;
81701;SDS011;71115;52.150;4.510;2023-08-21T01:33:19;4.55;;;2.08;;
81701;SDS011;71115;52.150;4.510;2023-08-21T01:35:45;6.30;;;2.35;;
81701;SDS011;71115;52.150;4.510;2023-08-21T01:38:11;9.20;;;1.95;;
81701;SDS011;71115;52.150;4.510;2023-08-21T01:40:37;9.35;;;1.75;;
81701;SDS011;71115;52.150;4.510;2023-08-21T01:43:03;6.57;;;2.05;;
81701;SDS011;71115;52.150;4.510;2023-08-21T01:45:29;4.85;;;1.55;;
81701;SDS011;71115;52.150;4.510;2023-08-21T01:47:55;4.70;;;1.70;;
81701;SDS011;71115;52.150;4.510;2023-08-21T01:50:21;6.55;;;1.98;;
81701;SDS011;71115;52.150;4.510;2023-08-21T01:52:47;8.23;;;2.22;;
81701;SDS011;71115;52.150;4.510;2023-08-21T01:55:13;4.65;;;1.52;;
81701;SDS011;71115;52.150;4.510;2023-08-21T01:57:39;7.35;;;1.85;;
81701;SDS011;71115;52.150;4.510;2023-08-21T02:00:07;11.20;;;2.47;;
81701;SDS011;71115;52.150;4.510;2023-08-21T02:02:33;4.45;;;1.73;;
81701;SDS011;71115;52.150;4.510;2023-08-21T02:04:59;7.25;;;2.30;;
81701;SDS011;71115;52.150;4.510;2023-08-21T02:07:25;9.30;;;2.10;;
81701;SDS011;71115;52.150;4.510;2023-08-21T02:09:51;6.07;;;1.83;;
81701;SDS011;71115;52.150;4.510;2023-08-21T02:12:17;5.68;;;1.70;;
81701;SDS011;71115;52.150;4.510;2023-08-21T02:14:43;4.70;;;1.70;;
81701;SDS011;71115;52.150;4.510;2023-08-21T02:17:09;5.32;;;2.20;;
81701;SDS011;71115;52.150;4.510;2023-08-21T02:19:35;10.05;;;2.00;;
81701;SDS011;71115;52.150;4.510;2023-08-21T02:22:01;3.47;;;1.42;;
81701;SDS011;71115;52.150;4.510;2023-08-21T02:24:27;7.68;;;2.50;;
81701;SDS011;71115;52.150;4.510;2023-08-21T02:26:53;6.25;;;2.20;;
81701;SDS011;71115;52.150;4.510;2023-08-21T02:29:20;6.90;;;2.03;;
81701;SDS011;71115;52.150;4.510;2023-08-21T02:31:46;7.65;;;2.03;;
81701;SDS011;71115;52.150;4.510;2023-08-21T02:34:12;7.88;;;1.90;;
81701;SDS011;71115;52.150;4.510;2023-08-21T02:36:38;5.30;;;1.88;;
81701;SDS011;71115;52.150;4.510;2023-08-21T02:39:04;8.00;;;2.33;;
81701;SDS011;71115;52.150;4.510;2023-08-21T02:41:30;5.63;;;1.55;;
81701;SDS011;71115;52.150;4.510;2023-08-21T02:43:56;9.32;;;1.98;;
81701;SDS011;71115;52.150;4.510;2023-08-21T02:46:22;6.97;;;2.08;;
81701;SDS011;71115;52.150;4.510;2023-08-21T02:48:48;6.82;;;1.60;;
81701;SDS011;71115;52.150;4.510;2023-08-21T02:51:14;8.10;;;2.10;;
81701;SDS011;71115;52.150;4.510;2023-08-21T02:53:40;5.78;;;1.63;;
81701;SDS011;71115;52.150;4.510;2023-08-21T02:56:06;8.70;;;1.83;;
81701;SDS011;71115;52.150;4.510;2023-08-21T02:58:32;11.43;;;2.20;;
81701;SDS011;71115;52.150;4.510;2023-08-21T03:00:58;6.75;;;2.08;;
81701;SDS011;71115;52.150;4.510;2023-08-21T03:03:24;4.50;;;1.63;;
81701;SDS011;71115;52.150;4.510;2023-08-21T03:05:50;6.13;;;2.03;;
81701;SDS011;71115;52.150;4.510;2023-08-21T03:08:16;8.38;;;1.92;;
81701;SDS011;71115;52.150;4.510;2023-08-21T03:10:42;8.68;;;1.80;;
81701;SDS011;71115;52.150;4.510;2023-08-21T03:13:08;6.38;;;1.80;;
81701;SDS011;71115;52.150;4.510;2023-08-21T03:15:34;3.97;;;1.77;;
81701;SDS011;71115;52.150;4.510;2023-08-21T03:20:26;7.50;;;2.20;;
81701;SDS011;71115;52.150;4.510;2023-08-21T03:22:52;8.15;;;1.80;;
81701;SDS011;71115;52.150;4.510;2023-08-21T03:25:18;8.98;;;2.08;;
81701;SDS011;71115;52.150;4.510;2023-08-21T03:27:44;4.70;;;1.73;;
81701;SDS011;71115;52.150;4.510;2023-08-21T03:30:14;9.90;;;2.08;;
81701;SDS011;71115;52.150;4.510;2023-08-21T03:32:40;4.97;;;1.80;;
81701;SDS011;71115;52.150;4.510;2023-08-21T03:35:07;9.65;;;1.92;;
81701;SDS011;71115;52.150;4.510;2023-08-21T03:37:33;6.10;;;2.10;;
81701;SDS011;71115;52.150;4.510;2023-08-21T03:39:59;6.40;;;1.90;;
81701;SDS011;71115;52.150;4.510;2023-08-21T03:42:25;6.35;;;2.08;;
81701;SDS011;71115;52.150;4.510;2023-08-21T03:44:54;6.45;;;2.25;;
81701;SDS011;71115;52.150;4.510;2023-08-21T03:47:23;3.78;;;1.80;;
81701;SDS011;71115;52.150;4.510;2023-08-21T03:49:53;4.40;;;2.35;;
81701;SDS011;71115;52.150;4.510;2023-08-21T03:52:22;8.73;;;2.20;;
81701;SDS011;71115;52.150;4.510;2023-08-21T03:54:48;6.03;;;1.60;;
81701;SDS011;71115;52.150;4.510;2023-08-21T03:57:14;7.25;;;1.90;;
81701;SDS011;71115;52.150;4.510;2023-08-21T03:59:40;7.28;;;2.63;;
81701;SDS011;71115;52.150;4.510;2023-08-21T04:02:07;11.25;;;2.00;;
81701;SDS011;71115;52.150;4.510;2023-08-21T04:04:33;5.97;;;1.92;;
81701;SDS011;71115;52.150;4.510;2023-08-21T04:06:58;7.28;;;2.05;;
81701;SDS011;71115;52.150;4.510;2023-08-21T04:09:24;5.53;;;1.70;;
81701;SDS011;71115;52.150;4.510;2023-08-21T04:11:50;7.90;;;2.28;;
81701;SDS011;71115;52.150;4.510;2023-08-21T04:14:17;6.93;;;1.80;;
81701;SDS011;71115;52.150;4.510;2023-08-21T04:16:42;6.38;;;1.77;;
81701;SDS011;71115;52.150;4.510;2023-08-21T04:19:09;5.88;;;1.98;;
81701;SDS011;71115;52.150;4.510;2023-08-21T04:21:35;4.95;;;1.70;;
81701;SDS011;71115;52.150;4.510;2023-08-21T04:24:01;8.57;;;2.03;;
81701;SDS011;71115;52.150;4.510;2023-08-21T04:26:27;6.78;;;1.65;;
81701;SDS011;71115;52.150;4.510;2023-08-21T04:28:53;5.60;;;2.10;;
81701;SDS011;71115;52.150;4.510;2023-08-21T04:31:19;5.88;;;1.55;;
81701;SDS011;71115;52.150;4.510;2023-08-21T04:33:45;9.07;;;2.22;;
81701;SDS011;71115;52.150;4.510;2023-08-21T04:36:14;8.27;;;2.13;;
81701;SDS011;71115;52.150;4.510;2023-08-21T04:38:41;9.63;;;2.20;;
81701;SDS011;71115;52.150;4.510;2023-08-21T04:41:07;6.55;;;1.85;;
81701;SDS011;71115;52.150;4.510;2023-08-21T04:43:33;9.40;;;2.30;;
81701;SDS011;71115;52.150;4.510;2023-08-21T04:46:00;6.13;;;2.08;;
81701;SDS011;71115;52.150;4.510;2023-08-21T04:48:26;11.85;;;2.78;;
81701;SDS011;71115;52.150;4.510;2023-08-21T04:50:52;10.05;;;2.85;;
81701;SDS011;71115;52.150;4.510;2023-08-21T04:53:18;9.02;;;2.85;;
81701;SDS011;71115;52.150;4.510;2023-08-21T04:55:44;8.65;;;2.30;;
81701;SDS011;71115;52.150;4.510;2023-08-21T04:58:10;12.82;;;3.90;;
81701;SDS011;71115;52.150;4.510;2023-08-21T05:00:36;9.45;;;2.90;;
81701;SDS011;71115;52.150;4.510;2023-08-21T05:03:03;5.82;;;2.03;;
81701;SDS011;71115;52.150;4.510;2023-08-21T05:05:29;5.32;;;2.45;;
81701;SDS011;71115;52.150;4.510;2023-08-21T05:07:55;6.45;;;2.60;;
81701;SDS011;71115;52.150;4.510;2023-08-21T05:10:24;8.45;;;2.80;;
81701;SDS011;71115;52.150;4.510;2023-08-21T05:12:50;9.63;;;3.10;;
81701;SDS011;71115;52.150;4.510;2023-08-21T05:15:16;6.13;;;3.10;;
81701;SDS011;71115;52.150;4.510;2023-08-21T05:17:45;6.07;;;2.40;;
81701;SDS011;71115;52.150;4.510;2023-08-21T05:20:14;10.70;;;3.00;;
81701;SDS011;71115;52.150;4.510;2023-08-21T05:22:40;7.53;;;2.38;;
81701;SDS011;71115;52.150;4.510;2023-08-21T05:25:07;6.30;;;2.85;;
81701;SDS011;71115;52.150;4.510;2023-08-21T05:27:34;8.30;;;2.45;;
81701;SDS011;71115;52.150;4.510;2023-08-21T05:30:00;6.82;;;2.55;;
81701;SDS011;71115;52.150;4.510;2023-08-21T05:32:26;10.93;;;2.60;;
81701;SDS011;71115;52.150;4.510;2023-08-21T05:34:52;7.20;;;2.65;;
81701;SDS011;71115;52.150;4.510;2023-08-21T05:37:18;10.77;;;2.88;;
81701;SDS011;71115;52.150;4.510;2023-08-21T05:39:44;11.18;;;2.60;;
81701;SDS011;71115;52.150;4.510;2023-08-21T05:42:10;8.70;;;2.60;;
81701;SDS011;71115;52.150;4.510;2023-08-21T05:44:36;5.78;;;2.58;;
81701;SDS011;71115;52.150;4.510;2023-08-21T05:47:02;9.38;;;2.67;;
81701;SDS011;71115;52.150;4.510;2023-08-21T05:49:28;7.05;;;2.65;;
81701;SDS011;71115;52.150;4.510;2023-08-21T05:54:24;4.95;;;2.25;;
81701;SDS011;71115;52.150;4.510;2023-08-21T05:56:50;6.95;;;2.28;;
81701;SDS011;71115;52.150;4.510;2023-08-21T05:59:26;7.57;;;2.53;;
81701;SDS011;71115;52.150;4.510;2023-08-21T06:01:53;9.40;;;2.45;;
81701;SDS011;71115;52.150;4.510;2023-08-21T06:04:19;9.18;;;2.80;;
81701;SDS011;71115;52.150;4.510;2023-08-21T06:06:45;8.48;;;2.80;;
81701;SDS011;71115;52.150;4.510;2023-08-21T06:09:11;6.85;;;2.55;;
81701;SDS011;71115;52.150;4.510;2023-08-21T06:11:37;6.50;;;2.85;;
81701;SDS011;71115;52.150;4.510;2023-08-21T06:16:29;16.15;;;3.70;;
81701;SDS011;71115;52.150;4.510;2023-08-21T06:18:55;7.05;;;2.67;;
81701;SDS011;71115;52.150;4.510;2023-08-21T06:21:21;8.32;;;3.00;;
81701;SDS011;71115;52.150;4.510;2023-08-21T06:23:47;8.63;;;3.30;;
81701;SDS011;71115;52.150;4.510;2023-08-21T06:26:13;10.05;;;3.88;;
81701;SDS011;71115;52.150;4.510;2023-08-21T06:28:39;7.20;;;3.10;;
81701;SDS011;71115;52.150;4.510;2023-08-21T06:31:05;6.45;;;3.50;;
81701;SDS011;71115;52.150;4.510;2023-08-21T06:33:34;10.02;;;4.05;;
81701;SDS011;71115;52.150;4.510;2023-08-21T06:36:00;13.18;;;3.78;;
81701;SDS011;71115;52.150;4.510;2023-08-21T06:38:26;6.93;;;2.88;;
81701;SDS011;71115;52.150;4.510;2023-08-21T06:40:52;12.82;;;3.17;;
81701;SDS011;71115;52.150;4.510;2023-08-21T06:43:18;7.55;;;3.40;;
81701;SDS011;71115;52.150;4.510;2023-08-21T06:45:44;9.20;;;3.50;;
81701;SDS011;71115;52.150;4.510;2023-08-21T06:48:10;9.07;;;3.38;;
81701;SDS011;71115;52.150;4.510;2023-08-21T06:50:36;9.18;;;3.13;;
81701;SDS011;71115;52.150;4.510;2023-08-21T06:55:28;11.57;;;2.60;;
81701;SDS011;71115;52.150;4.510;2023-08-21T06:57:54;6.95;;;2.53;;
81701;SDS011;71115;52.150;4.510;2023-08-21T07:00:20;9.52;;;2.60;;
81701;SDS011;71115;52.150;4.510;2023-08-21T07:02:46;11.88;;;3.08;;
81701;SDS011;71115;52.150;4.510;2023-08-21T07:05:12;4.95;;;1.30;;
81701;SDS011;71115;52.150;4.510;2023-08-21T07:07:39;11.02;;;3.10;;
81701;SDS011;71115;52.150;4.510;2023-08-21T07:10:05;7.20;;;2.47;;
81701;SDS011;71115;52.150;4.510;2023-08-21T07:12:31;13.70;;;3.03;;
81701;SDS011;71115;52.150;4.510;2023-08-21T07:14:57;7.88;;;2.35;;
81701;SDS011;71115;52.150;4.510;2023-08-21T07:17:23;10.60;;;2.38;;
81701;SDS011;71115;52.150;4.510;2023-08-21T07:19:49;9.02;;;2.20;;
81701;SDS011;71115;52.150;4.510;2023-08-21T07:22:17;10.18;;;2.80;;
81701;SDS011;71115;52.150;4.510;2023-08-21T07:24:43;8.82;;;2.25;;
81701;SDS011;71115;52.150;4.510;2023-08-21T07:27:09;10.75;;;2.60;;
81701;SDS011;71115;52.150;4.510;2023-08-21T07:29:35;15.98;;;4.82;;
81701;SDS011;71115;52.150;4.510;2023-08-21T07:34:27;10.18;;;2.80;;
81701;SDS011;71115;52.150;4.510;2023-08-21T07:36:53;8.90;;;3.33;;
81701;SDS011;71115;52.150;4.510;2023-08-21T07:39:19;7.10;;;2.35;;
81701;SDS011;71115;52.150;4.510;2023-08-21T07:41:45;8.88;;;2.08;;
81701;SDS011;71115;52.150;4.510;2023-08-21T07:44:12;8.95;;;2.20;;
81701;SDS011;71115;52.150;4.510;2023-08-21T07:46:38;8.50;;;2.10;;
81701;SDS011;71115;52.150;4.510;2023-08-21T07:49:04;10.27;;;2.58;;
81701;SDS011;71115;52.150;4.510;2023-08-21T07:51:30;6.28;;;2.72;;
81701;SDS011;71115;52.150;4.510;2023-08-21T07:53:56;6.28;;;2.28;;
81701;SDS011;71115;52.150;4.510;2023-08-21T07:56:22;11.18;;;1.75;;
81701;SDS011;71115;52.150;4.510;2023-08-21T07:58:48;11.52;;;2.30;;
81701;SDS011;71115;52.150;4.510;2023-08-21T08:01:14;6.57;;;2.00;;
81701;SDS011;71115;52.150;4.510;2023-08-21T08:03:40;9.38;;;2.08;;
81701;SDS011;71115;52.150;4.510;2023-08-21T08:06:06;9.32;;;1.85;;
81701;SDS011;71115;52.150;4.510;2023-08-21T08:11:01;7.97;;;1.70;;
81701;SDS011;71115;52.150;4.510;2023-08-21T08:13:28;7.43;;;1.45;;
81701;SDS011;71115;52.150;4.510;2023-08-21T08:15:54;4.68;;;1.50;;
81701;SDS011;71115;52.150;4.510;2023-08-21T08:20:46;6.38;;;1.48;;
81701;SDS011;71115;52.150;4.510;2023-08-21T08:25:38;6.28;;;1.90;;
81701;SDS011;71115;52.150;4.510;2023-08-21T08:28:04;8.32;;;1.83;;
81701;SDS011;71115;52.150;4.510;2023-08-21T08:32:56;7.00;;;1.45;;
81701;SDS011;71115;52.150;4.510;2023-08-21T08:35:22;7.50;;;1.75;;
81701;SDS011;71115;52.150;4.510;2023-08-21T08:37:48;6.85;;;2.40;;
81701;SDS011;71115;52.150;4.510;2023-08-21T08:42:40;3.95;;;2.03;;
81701;SDS011;71115;52.150;4.510;2023-08-21T08:45:06;6.90;;;2.13;;
81701;SDS011;71115;52.150;4.510;2023-08-21T08:47:33;6.97;;;1.35;;
81701;SDS011;71115;52.150;4.510;2023-08-21T08:50:01;7.88;;;1.40;;
81701;SDS011;71115;52.150;4.510;2023-08-21T08:52:29;10.00;;;1.30;;
81701;SDS011;71115;52.150;4.510;2023-08-21T08:54:56;8.15;;;2.15;;
81701;SDS011;71115;52.150;4.510;2023-08-21T08:57:23;7.97;;;1.30;;
81701;SDS011;71115;52.150;4.510;2023-08-21T09:02:16;5.32;;;1.42;;
81701;SDS011;71115;52.150;4.510;2023-08-21T09:04:42;5.53;;;1.38;;
81701;SDS011;71115;52.150;4.510;2023-08-21T09:07:08;5.60;;;1.85;;
81701;SDS011;71115;52.150;4.510;2023-08-21T09:09:41;8.68;;;1.50;;
81701;SDS011;71115;52.150;4.510;2023-08-21T09:12:09;7.80;;;1.73;;
81701;SDS011;71115;52.150;4.510;2023-08-21T09:14:36;8.00;;;2.08;;
81701;SDS011;71115;52.150;4.510;2023-08-21T09:19:31;4.07;;;1.05;;
81701;SDS011;71115;52.150;4.510;2023-08-21T09:21:57;7.35;;;1.42;;
81701;SDS011;71115;52.150;4.510;2023-08-21T09:24:23;6.15;;;1.45;;
81701;SDS011;71115;52.150;4.510;2023-08-21T09:26:50;5.35;;;1.10;;
81701;SDS011;71115;52.150;4.510;2023-08-21T09:29:16;5.65;;;1.65;;
81701;SDS011;71115;52.150;4.510;2023-08-21T09:31:42;6.63;;;1.20;;
81701;SDS011;71115;52.150;4.510;2023-08-21T09:34:10;3.83;;;1.13;;
81701;SDS011;71115;52.150;4.510;2023-08-21T09:36:37;5.82;;;1.50;;
81701;SDS011;71115;52.150;4.510;2023-08-21T09:39:06;5.60;;;1.48;;
81701;SDS011;71115;52.150;4.510;2023-08-21T09:41:41;5.47;;;1.80;;
81701;SDS011;71115;52.150;4.510;2023-08-21T09:44:07;2.97;;;0.90;;
81701;SDS011;71115;52.150;4.510;2023-08-21T09:46:33;7.45;;;1.45;;
81701;SDS011;71115;52.150;4.510;2023-08-21T09:48:59;7.28;;;1.25;;
81701;SDS011;71115;52.150;4.510;2023-08-21T09:51:28;5.40;;;1.13;;
81701;SDS011;71115;52.150;4.510;2023-08-21T09:53:54;7.65;;;1.80;;
81701;SDS011;71115;52.150;4.510;2023-08-21T09:56:21;4.93;;;1.17;;
81701;SDS011;71115;52.150;4.510;2023-08-21T09:58:51;4.25;;;1.38;;
81701;SDS011;71115;52.150;4.510;2023-08-21T10:01:17;3.38;;;1.10;;
81701;SDS011;71115;52.150;4.510;2023-08-21T10:03:44;4.15;;;1.13;;
81701;SDS011;71115;52.150;4.510;2023-08-21T10:06:15;3.95;;;1.10;;
81701;SDS011;71115;52.150;4.510;2023-08-21T10:08:51;5.43;;;1.30;;
81701;SDS011;71115;52.150;4.510;2023-08-21T10:11:20;5.68;;;1.17;;
81701;SDS011;71115;52.150;4.510;2023-08-21T10:13:46;3.28;;;1.10;;
81701;SDS011;71115;52.150;4.510;2023-08-21T10:16:12;4.38;;;1.20;;
81701;SDS011;71115;52.150;4.510;2023-08-21T10:18:41;7.72;;;2.03;;
81701;SDS011;71115;52.150;4.510;2023-08-21T10:23:38;4.45;;;1.70;;
81701;SDS011;71115;52.150;4.510;2023-08-21T10:26:05;5.00;;;1.08;;
81701;SDS011;71115;52.150;4.510;2023-08-21T10:28:42;6.00;;;1.20;;
81701;SDS011;71115;52.150;4.510;2023-08-21T10:33:53;3.70;;;1.00;;
81701;SDS011;71115;52.150;4.510;2023-08-21T10:39:05;3.25;;;1.10;;
81701;SDS011;71115;52.150;4.510;2023-08-21T10:41:38;4.78;;;1.10;;
81701;SDS011;71115;52.150;4.510;2023-08-21T10:44:05;3.67;;;0.95;;
81701;SDS011;71115;52.150;4.510;2023-08-21T10:46:50;2.65;;;0.85;;
81701;SDS011;71115;52.150;4.510;2023-08-21T10:49:16;3.28;;;1.00;;
81701;SDS011;71115;52.150;4.510;2023-08-21T10:51:42;1.80;;;0.60;;
81701;SDS011;71115;52.150;4.510;2023-08-21T10:54:15;5.07;;;1.25;;
81701;SDS011;71115;52.150;4.510;2023-08-21T10:59:07;5.22;;;1.10;;
81701;SDS011;71115;52.150;4.510;2023-08-21T11:01:43;6.55;;;1.15;;
81701;SDS011;71115;52.150;4.510;2023-08-21T11:04:10;4.35;;;1.00;;
81701;SDS011;71115;52.150;4.510;2023-08-21T11:06:36;3.65;;;1.02;;
81701;SDS011;71115;52.150;4.510;2023-08-21T11:09:02;2.88;;;1.00;;
81701;SDS011;71115;52.150;4.510;2023-08-21T11:11:29;3.40;;;0.75;;
81701;SDS011;71115;52.150;4.510;2023-08-21T11:13:55;4.95;;;1.23;;
81701;SDS011;71115;52.150;4.510;2023-08-21T11:16:21;4.15;;;1.25;;
81701;SDS011;71115;52.150;4.510;2023-08-21T11:18:47;2.15;;;1.38;;
81701;SDS011;71115;52.150;4.510;2023-08-21T11:21:13;6.57;;;1.30;;
81701;SDS011;71115;52.150;4.510;2023-08-21T11:23:40;2.80;;;0.88;;
81701;SDS011;71115;52.150;4.510;2023-08-21T11:26:06;6.82;;;0.95;;
81701;SDS011;71115;52.150;4.510;2023-08-21T11:28:35;3.35;;;0.95;;
81701;SDS011;71115;52.150;4.510;2023-08-21T11:31:01;4.32;;;1.20;;
81701;SDS011;71115;52.150;4.510;2023-08-21T11:33:27;5.00;;;1.20;;
81701;SDS011;71115;52.150;4.510;2023-08-21T11:35:57;3.40;;;1.10;;
81701;SDS011;71115;52.150;4.510;2023-08-21T11:38:24;5.20;;;1.33;;
81701;SDS011;71115;52.150;4.510;2023-08-21T11:40:54;6.18;;;1.30;;
81701;SDS011;71115;52.150;4.510;2023-08-21T11:43:21;2.75;;;0.90;;
81701;SDS011;71115;52.150;4.510;2023-08-21T11:45:47;3.42;;;1.20;;
81701;SDS011;71115;52.150;4.510;2023-08-21T11:48:13;2.83;;;0.85;;
81701;SDS011;71115;52.150;4.510;2023-08-21T11:50:42;4.55;;;1.35;;
81701;SDS011;71115;52.150;4.510;2023-08-21T11:53:08;8.82;;;1.30;;
81701;SDS011;71115;52.150;4.510;2023-08-21T11:55:35;5.75;;;1.50;;
81701;SDS011;71115;52.150;4.510;2023-08-21T11:58:03;3.50;;;1.00;;
81701;SDS011;71115;52.150;4.510;2023-08-21T12:00:29;3.45;;;0.73;;
81701;SDS011;71115;52.150;4.510;2023-08-21T12:02:59;4.05;;;1.38;;
81701;SDS011;71115;52.150;4.510;2023-08-21T12:05:27;4.65;;;1.00;;
81701;SDS011;71115;52.150;4.510;2023-08-21T12:07:54;6.47;;;1.52;;
81701;SDS011;71115;52.150;4.510;2023-08-21T12:10:23;9.20;;;1.13;;
81701;SDS011;71115;52.150;4.510;2023-08-21T12:12:49;7.13;;;1.45;;
81701;SDS011;71115;52.150;4.510;2023-08-21T12:15:16;2.53;;;0.82;;
81701;SDS011;71115;52.150;4.510;2023-08-21T12:17:42;6.43;;;0.90;;
81701;SDS011;71115;52.150;4.510;2023-08-21T12:20:08;6.65;;;1.00;;
81701;SDS011;71115;52.150;4.510;2023-08-21T12:22:37;4.13;;;1.00;;
81701;SDS011;71115;52.150;4.510;2023-08-21T12:25:04;5.25;;;1.23;;
81701;SDS011;71115;52.150;4.510;2023-08-21T12:27:30;5.25;;;1.00;;
81701;SDS011;71115;52.150;4.510;2023-08-21T12:29:56;2.20;;;0.90;;
81701;SDS011;71115;52.150;4.510;2023-08-21T12:32:22;2.05;;;0.90;;
81701;SDS011;71115;52.150;4.510;2023-08-21T12:34:48;3.13;;;1.00;;
81701;SDS011;71115;52.150;4.510;2023-08-21T12:37:14;3.92;;;1.10;;
81701;SDS011;71115;52.150;4.510;2023-08-21T12:39:40;2.35;;;0.80;;
81701;SDS011;71115;52.150;4.510;2023-08-21T12:42:06;3.55;;;0.95;;
81701;SDS011;71115;52.150;4.510;2023-08-21T12:44:35;4.28;;;1.00;;
81701;SDS011;71115;52.150;4.510;2023-08-21T12:47:01;4.13;;;1.00;;
81701;SDS011;71115;52.150;4.510;2023-08-21T12:49:27;2.42;;;0.73;;
81701;SDS011;71115;52.150;4.510;2023-08-21T12:51:53;3.33;;;1.05;;
81701;SDS011;71115;52.150;4.510;2023-08-21T12:54:20;1.58;;;0.73;;
81701;SDS011;71115;52.150;4.510;2023-08-21T12:56:46;1.33;;;0.60;;
81701;SDS011;71115;52.150;4.510;2023-08-21T12:59:12;3.90;;;0.95;;
81701;SDS011;71115;52.150;4.510;2023-08-21T13:01:39;2.78;;;0.82;;
81701;SDS011;71115;52.150;4.510;2023-08-21T13:04:05;5.90;;;1.02;;
81701;SDS011;71115;52.150;4.510;2023-08-21T13:06:31;3.25;;;1.10;;
81701;SDS011;71115;52.150;4.510;2023-08-21T13:08:57;3.80;;;1.15;;
81701;SDS011;71115;52.150;4.510;2023-08-21T13:11:23;1.90;;;0.80;;
81701;SDS011;71115;52.150;4.510;2023-08-21T13:13:49;2.38;;;0.90;;
81701;SDS011;71115;52.150;4.510;2023-08-21T13:18:41;4.25;;;0.88;;
81701;SDS011;71115;52.150;4.510;2023-08-21T13:23:33;3.50;;;1.25;;
81701;SDS011;71115;52.150;4.510;2023-08-21T13:25:59;5.72;;;1.25;;
81701;SDS011;71115;52.150;4.510;2023-08-21T13:28:26;3.20;;;1.27;;
81701;SDS011;71115;52.150;4.510;2023-08-21T13:30:52;2.25;;;0.73;;
81701;SDS011;71115;52.150;4.510;2023-08-21T13:35:44;2.40;;;0.90;;
81701;SDS011;71115;52.150;4.510;2023-08-21T13:38:11;3.38;;;1.02;;
81701;SDS011;71115;52.150;4.510;2023-08-21T13:40:38;5.18;;;1.00;;
81701;SDS011;71115;52.150;4.510;2023-08-21T13:43:05;4.25;;;1.25;;
81701;SDS011;71115;52.150;4.510;2023-08-21T13:45:32;5.43;;;1.08;;
81701;SDS011;71115;52.150;4.510;2023-08-21T13:47:58;3.40;;;1.10;;
81701;SDS011;71115;52.150;4.510;2023-08-21T13:50:24;4.72;;;1.20;;
81701;SDS011;71115;52.150;4.510;2023-08-21T13:55:16;1.00;;;0.57;;
81701;SDS011;71115;52.150;4.510;2023-08-21T13:57:42;5.10;;;1.10;;
81701;SDS011;71115;52.150;4.510;2023-08-21T14:00:09;4.13;;;1.13;;
81701;SDS011;71115;52.150;4.510;2023-08-21T14:02:39;4.60;;;1.15;;
81701;SDS011;71115;52.150;4.510;2023-08-21T14:05:06;3.45;;;1.10;;
81701;SDS011;71115;52.150;4.510;2023-08-21T14:07:32;3.72;;;1.10;;
81701;SDS011;71115;52.150;4.510;2023-08-21T14:09:58;3.95;;;1.00;;
81701;SDS011;71115;52.150;4.510;2023-08-21T14:12:24;2.55;;;1.20;;
81701;SDS011;71115;52.150;4.510;2023-08-21T14:17:16;4.18;;;1.17;;
81701;SDS011;71115;52.150;4.510;2023-08-21T14:22:08;3.97;;;1.02;;
81701;SDS011;71115;52.150;4.510;2023-08-21T14:24:34;4.82;;;1.27;;
81701;SDS011;71115;52.150;4.510;2023-08-21T14:29:26;7.80;;;1.10;;
81701;SDS011;71115;52.150;4.510;2023-08-21T14:34:19;3.55;;;1.23;;
81701;SDS011;71115;52.150;4.510;2023-08-21T14:36:45;4.05;;;1.17;;
81701;SDS011;71115;52.150;4.510;2023-08-21T14:41:37;4.55;;;0.98;;
81701;SDS011;71115;52.150;4.510;2023-08-21T14:44:04;3.60;;;1.05;;
81701;SDS011;71115;52.150;4.510;2023-08-21T14:46:30;3.33;;;1.23;;
81701;SDS011;71115;52.150;4.510;2023-08-21T14:48:57;3.75;;;0.88;;
81701;SDS011;71115;52.150;4.510;2023-08-21T14:53:49;2.90;;;0.90;;
81701;SDS011;71115;52.150;4.510;2023-08-21T14:56:15;4.32;;;1.00;;
81701;SDS011;71115;52.150;4.510;2023-08-21T14:58:41;5.18;;;1.38;;
81701;SDS011;71115;52.150;4.510;2023-08-21T15:01:08;3.67;;;1.10;;
81701;SDS011;71115;52.150;4.510;2023-08-21T15:03:38;3.22;;;1.10;;
81701;SDS011;71115;52.150;4.510;2023-08-21T15:06:04;2.63;;;0.90;;
81701;SDS011;71115;52.150;4.510;2023-08-21T15:08:31;6.68;;;1.20;;
81701;SDS011;71115;52.150;4.510;2023-08-21T15:10:57;3.83;;;1.17;;
81701;SDS011;71115;52.150;4.510;2023-08-21T15:15:49;3.38;;;0.98;;
81701;SDS011;71115;52.150;4.510;2023-08-21T15:18:15;3.63;;;1.42;;
81701;SDS011;71115;52.150;4.510;2023-08-21T15:20:41;4.85;;;1.10;;
81701;SDS011;71115;52.150;4.510;2023-08-21T15:23:07;4.65;;;1.10;;
81701;SDS011;71115;52.150;4.510;2023-08-21T15:27:59;3.50;;;1.13;;
81701;SDS011;71115;52.150;4.510;2023-08-21T15:32:51;3.45;;;0.90;;
81701;SDS011;71115;52.150;4.510;2023-08-21T15:37:43;2.92;;;0.90;;
81701;SDS011;71115;52.150;4.510;2023-08-21T15:40:10;2.25;;;0.95;;
81701;SDS011;71115;52.150;4.510;2023-08-21T15:42:36;2.95;;;1.20;;
81701;SDS011;71115;52.150;4.510;2023-08-21T15:47:28;4.00;;;1.10;;
81701;SDS011;71115;52.150;4.510;2023-08-21T15:52:20;1.30;;;0.82;;
81701;SDS011;71115;52.150;4.510;2023-08-21T15:54:46;5.25;;;1.27;;
81701;SDS011;71115;52.150;4.510;2023-08-21T15:57:15;4.90;;;0.95;;
81701;SDS011;71115;52.150;4.510;2023-08-21T16:02:07;4.88;;;1.20;;
81701;SDS011;71115;52.150;4.510;2023-08-21T16:04:33;3.13;;;1.10;;
81701;SDS011;71115;52.150;4.510;2023-08-21T16:06:59;3.72;;;1.10;;
81701;SDS011;71115;52.150;4.510;2023-08-21T16:11:52;6.18;;;1.30;;
81701;SDS011;71115;52.150;4.510;2023-08-21T16:16:44;3.38;;;1.20;;